Time;durP1;ratioP1;P1;durP2;ratioP2;P2;SDS_P1;SDS_P2;PMS_P1;PMS_P2;Temp;Humidity;BMP_temperature;BMP_pressure;BME280_temperature;BME280_humidity;BME280_pressure;Samples;Min_cycle;Max_cycle;Signal;HPM_P1;HPM_P2
2024/04/09 00:00:03;;;;;;;11.20;7.60;;;;;;;15.55;57.50;100849.61;108806;1262;60100;-52
2024/04/09 00:02:31;;;;;;;11.30;7.30;;;;;;;15.50;57.71;100849.84;108649;1260;169824;-55
2024/04/09 00:04:58;;;;;;;10.80;7.70;;;;;;;15.47;57.82;100848.43;108839;1261;57781;-54
2024/04/09 00:07:26;;;;;;;11.70;7.60;;;;;;;15.45;57.97;100847.15;107442;1259;59867;-55
2024/04/09 00:09:55;;;;;;;13.40;7.30;;;;;;;15.46;58.10;100843.96;104882;1259;64177;-53
2024/04/09 00:12:25;;;;;;;10.90;7.60;;;;;;;15.46;58.06;100836.51;106556;1260;60435;-54
2024/04/09 00:14:55;;;;;;;10.60;7.40;;;;;;;15.45;58.18;100833.97;105759;1262;63109;-53
2024/04/09 00:17:25;;;;;;;9.50;6.80;;;;;;;15.41;58.13;100832.66;105201;1265;60437;-54
2024/04/09 00:19:53;;;;;;;10.50;7.40;;;;;;;15.37;58.15;100832.88;105062;1258;60022;-51
2024/04/09 00:22:23;;;;;;;10.20;7.40;;;;;;;15.33;58.13;100833.80;105132;1262;65792;-53
2024/04/09 00:24:50;;;;;;;10.80;7.70;;;;;;;15.27;58.10;100838.06;105065;1263;61310;-55
2024/04/09 00:27:19;;;;;;;11.50;7.10;;;;;;;15.20;58.19;100839.44;105125;1260;62473;-54
2024/04/09 00:29:47;;;;;;;11.20;7.20;;;;;;;15.17;58.27;100839.52;105742;1262;60438;-51
2024/04/09 00:32:14;;;;;;;10.50;7.30;;;;;;;15.17;58.47;100841.59;104855;1256;60573;-53
2024/04/09 00:34:42;;;;;;;9.30;6.40;;;;;;;15.18;58.58;100847.34;105064;1264;72915;-53
2024/04/09 00:37:11;;;;;;;10.40;6.90;;;;;;;15.16;58.63;100847.36;105159;1262;60506;-53
2024/04/09 00:39:39;;;;;;;9.50;7.10;;;;;;;15.13;58.89;100844.80;105974;1260;63661;-53
2024/04/09 00:42:09;;;;;;;10.30;7.50;;;;;;;15.09;59.01;100845.56;105263;1258;60565;-53
2024/04/09 00:44:37;;;;;;;9.80;7.90;;;;;;;15.06;59.04;100845.64;105280;1262;60527;-53
2024/04/09 00:47:06;;;;;;;10.70;6.60;;;;;;;15.02;59.04;100847.74;105155;1260;63714;-53
2024/04/09 00:49:34;;;;;;;10.90;6.70;;;;;;;14.99;59.02;100850.67;105375;1262;60440;-52
2024/04/09 00:52:01;;;;;;;11.00;7.00;;;;;;;14.98;59.07;100850.27;104926;1266;63830;-54
2024/04/09 00:54:29;;;;;;;10.80;7.60;;;;;;;14.98;59.23;100849.73;105270;1264;60650;-53
2024/04/09 00:56:57;;;;;;;13.10;8.00;;;;;;;14.95;59.22;100848.76;105251;1266;60336;-54
2024/04/09 00:59:24;;;;;;;11.70;7.30;;;;;;;14.91;59.32;100848.19;105193;1265;63672;-53
2024/04/09 01:01:51;;;;;;;10.60;7.60;;;;;;;14.87;59.42;100845.23;105215;1260;60560;-53
2024/04/09 01:04:20;;;;;;;9.90;7.40;;;;;;;14.82;59.45;100845.70;105248;1259;63862;-52
2024/04/09 01:06:47;;;;;;;11.70;7.90;;;;;;;14.75;59.42;100846.16;105331;1259;60521;-52
2024/04/09 01:09:15;;;;;;;9.40;6.30;;;;;;;14.68;59.46;100843.20;105227;1266;61639;-55
2024/04/09 01:11:43;;;;;;;10.80;7.00;;;;;;;14.67;59.39;100843.99;105318;1254;63690;-52
2024/04/09 01:14:11;;;;;;;13.20;7.10;;;;;;;14.66;59.44;100844.66;105413;1254;61301;-53
2024/04/09 01:16:38;;;;;;;10.30;7.20;;;;;;;14.63;59.49;100843.52;105240;1253;63684;-53
2024/04/09 01:19:06;;;;;;;10.60;7.50;;;;;;;14.59;59.88;100849.16;105231;1256;60651;-55
2024/04/09 01:21:33;;;;;;;12.10;7.10;;;;;;;14.57;60.02;100850.23;105241;1254;60536;-54
2024/04/09 01:24:01;;;;;;;10.20;7.40;;;;;;;14.54;60.02;100846.94;105254;1260;65468;-53
2024/04/09 01:26:29;;;;;;;10.00;7.10;;;;;;;14.48;59.88;100850.95;105257;1259;60597;-56
2024/04/09 01:28:57;;;;;;;9.80;6.80;;;;;;;14.43;59.94;100851.94;105721;1260;62433;-52
2024/04/09 01:31:24;;;;;;;11.40;7.00;;;;;;;14.41;59.99;100850.94;105286;1259;60566;-53
2024/04/09 01:33:52;;;;;;;10.50;6.30;;;;;;;14.42;60.16;100850.88;105125;1253;59237;-53
2024/04/09 01:36:20;;;;;;;12.60;7.00;;;;;;;14.41;60.06;100851.23;105341;1254;63650;-53
2024/04/09 01:38:49;;;;;;;12.80;6.90;;;;;;;14.39;60.00;100848.05;106118;1251;61581;-54
2024/04/09 01:41:17;;;;;;;11.50;6.90;;;;;;;14.36;59.90;100850.69;105414;1258;62512;-53
2024/04/09 01:43:45;;;;;;;11.50;6.80;;;;;;;14.30;59.79;100852.55;105535;1257;60450;-53
2024/04/09 01:46:14;;;;;;;12.50;7.30;;;;;;;14.25;59.78;100851.03;105438;1260;60533;-54
2024/04/09 01:48:43;;;;;;;10.40;6.90;;;;;;;14.21;59.97;100855.67;106268;1252;63717;-54
2024/04/09 01:51:11;;;;;;;11.10;6.40;;;;;;;14.16;60.10;100854.88;105477;1253;60456;-53
2024/04/09 01:53:43;;;;;;;9.00;5.90;;;;;;;14.16;59.91;100858.45;105478;1254;62477;-51
2024/04/09 01:56:11;;;;;;;9.20;6.00;;;;;;;14.19;60.00;100859.86;105280;1257;60544;-54
2024/04/09 01:58:39;;;;;;;14.70;6.60;;;;;;;14.24;59.93;100864.23;105263;1258;60451;-52
2024/04/09 02:01:09;;;;;;;8.80;5.70;;;;;;;14.24;59.92;100865.60;105647;1254;65405;-52
2024/04/09 02:03:40;;;;;;;8.90;6.50;;;;;;;14.22;60.13;100864.73;105262;1255;62778;-54
2024/04/09 02:06:08;;;;;;;10.30;6.60;;;;;;;14.19;60.04;100865.00;105406;1260;63699;-54
2024/04/09 02:08:37;;;;;;;9.60;6.10;;;;;;;14.13;59.95;100862.00;105163;1258;60557;-55
2024/04/09 02:11:05;;;;;;;10.80;6.40;;;;;;;14.09;59.93;100867.86;105735;1258;60585;-54
2024/04/09 02:13:32;;;;;;;8.40;5.50;;;;;;;14.09;59.84;100866.92;105659;1254;63872;-54
2024/04/09 02:16:01;;;;;;;10.20;5.60;;;;;;;14.15;59.86;100865.71;105342;1254;61609;-55
2024/04/09 02:18:28;;;;;;;8.60;5.90;;;;;;;14.19;59.75;100869.23;105244;1258;62488;-55
2024/04/09 02:20:56;;;;;;;8.40;5.60;;;;;;;14.17;59.82;100868.95;105294;1257;60535;-54
2024/04/09 02:23:23;;;;;;;7.60;5.40;;;;;;;14.12;59.99;100864.54;105852;1258;60542;-53
2024/04/09 02:25:51;;;;;;;9.60;5.40;;;;;;;14.10;60.14;100866.53;105284;1254;64953;-53
2024/04/09 02:28:18;;;;;;;7.60;5.30;;;;;;;14.03;60.17;100865.84;105237;1255;60737;-54
2024/04/09 02:30:47;;;;;;;9.30;5.50;;;;;;;13.96;60.04;100865.41;105286;1258;63776;-55
2024/04/09 02:33:14;;;;;;;8.20;5.40;;;;;;;13.92;60.16;100865.38;105379;1261;60429;-54
2024/04/09 02:35:42;;;;;;;8.60;5.40;;;;;;;13.92;60.04;100867.16;106275;1253;60492;-54
2024/04/09 02:38:10;;;;;;;8.70;5.40;;;;;;;13.92;59.96;100869.27;105196;1260;65072;-54
2024/04/09 02:40:37;;;;;;;10.80;5.70;;;;;;;13.91;59.98;100869.69;105547;1263;61305;-55
2024/04/09 02:43:05;;;;;;;9.20;5.50;;;;;;;13.92;60.13;100872.75;105209;1253;63771;-55
2024/04/09 02:45:32;;;;;;;11.60;6.10;;;;;;;13.94;60.12;100873.54;105283;1254;60571;-54
2024/04/09 02:48:00;;;;;;;8.80;5.70;;;;;;;13.92;60.15;100871.69;105703;1258;60484;-53
2024/04/09 02:50:28;;;;;;;7.80;4.90;;;;;;;13.90;60.18;100877.92;105204;1254;63708;-51
2024/04/09 02:52:55;;;;;;;12.00;5.90;;;;;;;13.89;59.97;100876.22;105196;1261;61866;-54
2024/04/09 02:55:23;;;;;;;9.60;4.90;;;;;;;13.89;59.89;100872.39;105257;1259;62417;-54
2024/04/09 02:57:50;;;;;;;8.80;5.70;;;;;;;13.87;59.90;100871.86;105085;1254;60591;-54
2024/04/09 03:00:21;;;;;;;9.80;5.20;;;;;;;13.83;60.09;100880.28;105063;1255;60565;-54
2024/04/09 03:02:50;;;;;;;10.00;5.30;;;;;;;13.79;60.16;100883.99;105046;1261;64860;-53
2024/04/09 03:05:27;;;;;;;9.20;5.30;;;;;;;13.74;60.28;100880.02;105157;1258;60541;-51
2024/04/09 03:07:55;;;;;;;9.00;5.10;;;;;;;13.67;60.30;100883.20;105692;1255;63753;-53
2024/04/09 03:10:23;;;;;;;8.30;4.70;;;;;;;13.64;60.38;100883.49;107660;1255;60492;-53
2024/04/09 03:12:50;;;;;;;7.30;4.20;;;;;;;13.66;60.37;100883.37;105114;1254;60540;-51
2024/04/09 03:15:18;;;;;;;7.60;4.40;;;;;;;13.70;60.38;100889.66;105359;1257;63718;-53
2024/04/09 03:17:45;;;;;;;7.30;4.20;;;;;;;13.74;60.28;100895.30;105224;1258;60493;-54
2024/04/09 03:20:13;;;;;;;7.60;4.10;;;;;;;13.71;60.06;100899.27;105423;1260;62542;-54
2024/04/09 03:22:41;;;;;;;8.00;5.00;;;;;;;13.64;60.12;100901.48;105368;1257;60549;-52
2024/04/09 03:25:08;;;;;;;8.00;4.40;;;;;;;13.57;60.27;100902.05;106252;1254;60390;-52
2024/04/09 03:27:36;;;;;;;8.10;4.60;;;;;;;13.53;60.30;100904.30;105329;1257;63632;-52
2024/04/09 03:30:05;;;;;;;5.90;3.80;;;;;;;13.51;60.44;100905.73;105412;1254;60597;-52
2024/04/09 03:32:33;;;;;;;8.80;4.10;;;;;;;13.51;60.47;100903.42;105699;1254;62468;-54
2024/04/09 03:35:01;;;;;;;6.70;4.10;;;;;;;13.53;60.45;100907.17;106548;1257;60563;-53
2024/04/09 03:37:29;;;;;;;7.20;4.30;;;;;;;13.56;60.51;100912.20;105194;1259;60405;-54
2024/04/09 03:39:56;;;;;;;7.50;4.50;;;;;;;13.56;60.53;100912.56;105281;1258;64990;-53
2024/04/09 03:42:24;;;;;;;11.00;4.90;;;;;;;13.53;60.55;100914.05;105324;1259;60414;-53
2024/04/09 03:44:51;;;;;;;6.80;4.60;;;;;;;13.50;60.56;100910.44;105292;1260;63712;-53
2024/04/09 03:47:19;;;;;;;8.40;4.80;;;;;;;13.46;60.64;100915.00;105246;1258;60559;-53
2024/04/09 03:49:47;;;;;;;8.10;4.70;;;;;;;13.42;60.77;100914.41;105045;1254;60469;-54
2024/04/09 03:52:20;;;;;;;8.10;5.00;;;;;;;13.44;60.96;100915.66;105215;1254;64988;-53
2024/04/09 03:54:47;;;;;;;8.20;5.00;;;;;;;13.49;61.00;100914.52;105211;1260;60431;-54
2024/04/09 03:57:15;;;;;;;9.50;5.40;;;;;;;13.55;61.04;100916.15;105420;1260;62441;-53
2024/04/09 03:59:42;;;;;;;8.60;4.80;;;;;;;13.59;61.16;100920.06;105262;1258;61246;-54
2024/04/09 04:02:10;;;;;;;11.60;5.60;;;;;;;13.60;61.24;100924.00;105344;1257;62341;-54
2024/04/09 04:04:38;;;;;;;9.00;5.50;;;;;;;13.64;61.34;100924.08;105440;1254;65742;-54
2024/04/09 04:07:06;;;;;;;7.80;4.70;;;;;;;13.67;61.35;100922.57;105156;1261;61270;-52
2024/04/09 04:09:33;;;;;;;8.40;5.30;;;;;;;13.71;61.37;100926.57;105629;1260;63786;-52
2024/04/09 04:12:02;;;;;;;10.00;5.00;;;;;;;13.79;61.43;100930.90;106438;1257;60951;-53
2024/04/09 04:14:29;;;;;;;9.50;5.70;;;;;;;13.88;61.48;100931.89;106770;1254;61308;-55
2024/04/09 04:16:57;;;;;;;10.90;6.20;;;;;;;13.96;61.57;100931.22;105827;1251;65856;-54
2024/04/09 04:19:25;;;;;;;9.00;5.80;;;;;;;14.04;61.81;100932.33;105291;1259;61397;-51
2024/04/09 04:21:52;;;;;;;10.50;5.70;;;;;;;14.10;61.82;100934.77;105148;1254;63676;-52
2024/04/09 04:24:20;;;;;;;10.30;5.20;;;;;;;14.14;61.76;100933.20;105266;1254;61118;-54
2024/04/09 04:26:48;;;;;;;10.30;5.40;;;;;;;14.22;61.79;100937.11;105223;1254;61243;-52
2024/04/09 04:29:15;;;;;;;9.60;5.70;;;;;;;14.31;61.92;100937.71;105097;1260;65854;-53
2024/04/09 04:31:44;;;;;;;7.40;5.10;;;;;;;14.42;61.83;100937.48;105332;1254;61380;-55
2024/04/09 04:34:12;;;;;;;9.50;5.50;;;;;;;14.51;61.95;100935.84;105333;1254;63677;-54
2024/04/09 04:36:40;;;;;;;8.60;5.50;;;;;;;14.58;61.87;100936.11;105444;1254;61373;-53
2024/04/09 04:39:07;;;;;;;12.00;6.20;;;;;;;14.65;61.73;100935.64;105174;1254;61210;-53
2024/04/09 04:41:35;;;;;;;9.40;5.20;;;;;;;14.73;61.75;100933.90;105292;1254;64448;-54
2024/04/09 04:44:02;;;;;;;10.60;5.20;;;;;;;14.82;61.37;100939.33;105287;1254;61445;-52
2024/04/09 04:46:30;;;;;;;8.60;5.10;;;;;;;14.90;61.38;100938.98;105294;1255;62455;-53
2024/04/09 04:48:57;;;;;;;10.60;5.60;;;;;;;14.97;61.42;100937.59;105271;1254;62425;-54
2024/04/09 04:51:25;;;;;;;8.40;5.40;;;;;;;15.04;61.36;100939.77;105425;1257;61283;-56
2024/04/09 04:53:53;;;;;;;9.90;6.20;;;;;;;15.10;61.33;100941.25;105181;1258;66250;-54
2024/04/09 04:56:21;;;;;;;10.60;5.60;;;;;;;15.14;61.20;100939.60;105304;1254;61266;-54
2024/04/09 04:58:48;;;;;;;8.40;5.20;;;;;;;15.20;61.22;100939.02;105948;1254;63762;-54
2024/04/09 05:01:16;;;;;;;7.70;5.40;;;;;;;15.31;60.94;100937.73;105275;1254;61243;-51
2024/04/09 05:03:43;;;;;;;9.00;5.20;;;;;;;15.42;60.63;100939.85;105133;1254;61312;-51
2024/04/09 05:06:12;;;;;;;11.60;4.80;;;;;;;15.55;60.39;100940.29;105387;1254;64571;-50
2024/04/09 05:08:39;;;;;;;9.60;5.50;;;;;;;15.64;60.18;100945.46;105327;1257;61113;-52
2024/04/09 05:11:10;;;;;;;8.60;5.20;;;;;;;15.74;60.05;100939.77;105037;1257;63854;-49
2024/04/09 05:13:38;;;;;;;9.00;5.10;;;;;;;15.85;59.54;100938.65;105215;1254;61275;-49
2024/04/09 05:16:05;;;;;;;8.20;5.90;;;;;;;15.94;59.05;100939.40;105023;1255;61353;-56
2024/04/09 05:18:33;;;;;;;9.50;5.70;;;;;;;16.01;58.33;100943.88;105004;1259;65794;-56
2024/04/09 05:21:01;;;;;;;7.40;4.80;;;;;;;16.06;57.73;100948.66;105471;1259;61174;-53
2024/04/09 05:23:29;;;;;;;12.90;5.30;;;;;;;16.11;57.17;100948.14;105221;1255;62443;-52
2024/04/09 05:25:56;;;;;;;11.10;5.20;;;;;;;16.20;56.74;100943.68;104783;1260;61309;-53
2024/04/09 05:28:24;;;;;;;7.60;4.40;;;;;;;16.32;56.23;100945.16;109119;1253;59896;-55
2024/04/09 05:30:51;;;;;;;7.80;4.20;;;;;;;16.43;55.71;100945.33;109133;1253;64562;-54
2024/04/09 05:33:18;;;;;;;8.00;4.90;;;;;;;16.52;55.13;100946.23;109136;1253;61354;-55
2024/04/09 05:35:46;;;;;;;8.60;4.50;;;;;;;16.62;54.80;100944.92;109145;1253;62573;-54
2024/04/09 05:38:13;;;;;;;8.00;4.50;;;;;;;16.73;54.26;100946.17;109264;1253;59128;-54
2024/04/09 05:40:41;;;;;;;8.30;4.50;;;;;;;16.84;53.85;100946.67;106418;1257;61319;-54
2024/04/09 05:43:08;;;;;;;8.80;4.60;;;;;;;16.94;53.60;100947.98;104894;1254;75235;-53
2024/04/09 05:45:36;;;;;;;7.10;4.00;;;;;;;17.02;53.20;100948.93;105025;1256;61230;-48
2024/04/09 05:48:04;;;;;;;9.70;4.30;;;;;;;17.12;52.89;100948.13;105047;1257;62512;-49
2024/04/09 05:50:32;;;;;;;7.40;4.30;;;;;;;17.20;52.48;100945.21;104991;1260;61187;-49
2024/04/09 05:52:59;;;;;;;14.40;4.60;;;;;;;17.27;52.32;100944.31;105195;1258;61381;-49
2024/04/09 05:55:27;;;;;;;7.40;4.20;;;;;;;17.35;52.25;100944.45;105103;1257;76784;-54
2024/04/09 05:57:54;;;;;;;8.50;3.90;;;;;;;17.45;52.12;100944.83;105165;1258;73029;-51
2024/04/09 06:00:22;;;;;;;7.00;3.90;;;;;;;17.55;52.00;100947.16;104967;1257;65956;-55
2024/04/09 06:02:50;;;;;;;6.60;3.40;;;;;;;17.64;51.46;100949.15;105071;1258;61334;-53
2024/04/09 06:05:20;;;;;;;7.70;3.60;;;;;;;17.74;50.53;100951.73;105274;1255;61231;-55
2024/04/09 06:07:48;;;;;;;7.70;3.40;;;;;;;17.84;50.04;100947.66;105033;1257;76897;-55
2024/04/09 06:10:18;;;;;;;5.80;3.10;;;;;;;17.94;48.83;100948.45;105229;1254;70174;-54
2024/04/09 06:12:46;;;;;;;6.30;3.10;;;;;;;18.05;47.85;100946.42;105137;1257;74908;-66
2024/04/09 06:15:14;;;;;;;5.70;2.30;;;;;;;18.17;47.26;100948.52;105089;1260;61286;-58
2024/04/09 06:17:44;;;;;;;6.00;2.80;;;;;;;18.29;46.95;100950.37;105215;1254;61371;-60
2024/04/09 06:20:14;;;;;;;5.30;2.70;;;;;;;18.40;46.47;100953.62;105104;1253;67730;-58
2024/04/09 06:22:41;;;;;;;8.50;3.20;;;;;;;18.49;46.14;100953.89;105438;1260;61242;-61
2024/04/09 06:25:10;;;;;;;5.90;2.60;;;;;;;18.58;46.02;100955.52;105117;1254;63821;-62
2024/04/09 06:27:40;;;;;;;8.00;2.80;;;;;;;18.66;45.76;100954.61;105690;1259;61408;-60
2024/04/09 06:30:08;;;;;;;10.50;3.00;;;;;;;18.76;45.46;100961.45;105442;1252;61325;-59
2024/04/09 06:32:36;;;;;;;8.70;3.20;;;;;;;18.85;45.17;100958.59;105553;1257;76783;-58
2024/04/09 06:35:04;;;;;;;6.70;2.60;;;;;;;18.93;44.79;100958.98;105088;1253;63517;-57
2024/04/09 06:37:31;;;;;;;6.00;2.70;;;;;;;19.02;44.47;100964.00;105270;1253;73625;-56
2024/04/09 06:39:59;;;;;;;5.70;2.50;;;;;;;19.11;43.97;100963.75;106623;1258;61344;-61
2024/04/09 06:42:27;;;;;;;7.20;3.40;;;;;;;19.24;44.12;100963.42;105941;1259;61348;-63
2024/04/09 06:44:54;;;;;;;6.00;2.20;;;;;;;19.37;44.27;100963.27;106017;1257;68981;-63
2024/04/09 06:47:22;;;;;;;6.60;2.10;;;;;;;19.47;43.02;100962.52;105627;1253;61367;-65
2024/04/09 06:49:50;;;;;;;6.30;2.20;;;;;;;19.61;42.47;100955.75;105204;1257;65081;-66
2024/04/09 06:52:18;;;;;;;7.00;2.90;;;;;;;19.76;42.20;100959.46;105466;1254;62307;-59
2024/04/09 06:54:45;;;;;;;7.10;3.10;;;;;;;19.84;42.80;100961.36;104912;1253;62413;-64
2024/04/09 06:57:13;;;;;;;5.00;2.80;;;;;;;19.91;42.93;100955.20;109128;1253;74808;-62
2024/04/09 06:59:41;;;;;;;5.40;2.60;;;;;;;19.98;43.15;100957.15;109115;1253;72621;-61
2024/04/09 07:02:09;;;;;;;5.40;2.80;;;;;;;20.05;42.90;100957.28;109155;1253;62593;-62
2024/04/09 07:04:36;;;;;;;6.30;2.70;;;;;;;20.14;42.97;100955.98;107115;1253;61215;-62
2024/04/09 07:07:04;;;;;;;6.20;3.00;;;;;;;20.20;43.08;100955.93;105527;1253;61458;-60
2024/04/09 07:09:33;;;;;;;5.70;2.60;;;;;;;20.26;42.39;100950.70;105139;1258;76854;-62
2024/04/09 07:12:00;;;;;;;6.00;2.50;;;;;;;20.30;42.01;100953.52;106096;1258;71508;-64
2024/04/09 07:14:28;;;;;;;6.20;2.60;;;;;;;20.34;41.93;100951.38;105564;1259;73077;-62
2024/04/09 07:16:55;;;;;;;7.90;2.30;;;;;;;20.42;41.91;100951.73;106043;1258;61268;-67
2024/04/09 07:19:23;;;;;;;5.40;2.00;;;;;;;20.54;41.18;100954.36;105017;1253;62192;-63
2024/04/09 07:21:50;;;;;;;5.90;2.10;;;;;;;20.69;40.68;100952.84;105289;1254;66028;-67
2024/04/09 07:24:18;;;;;;;4.20;1.80;;;;;;;20.87;39.76;100950.11;105698;1258;72212;-60
2024/04/09 07:26:46;;;;;;;4.90;1.90;;;;;;;21.05;39.10;100947.81;105228;1254;74678;-62
2024/04/09 07:29:13;;;;;;;6.20;2.30;;;;;;;21.20;38.74;100949.02;105551;1254;61407;-60
2024/04/09 07:31:41;;;;;;;5.50;1.90;;;;;;;21.34;38.50;100950.46;105203;1257;61425;-64
2024/04/09 07:34:09;;;;;;;8.30;1.40;;;;;;;21.47;37.81;100942.92;105745;1254;66121;-59
2024/04/09 07:36:37;;;;;;;5.10;1.50;;;;;;;21.60;37.55;100941.83;106289;1254;61579;-60
2024/04/09 07:39:07;;;;;;;5.10;1.90;;;;;;;21.71;37.56;100942.60;105638;1253;64087;-59
2024/04/09 07:41:35;;;;;;;4.20;1.70;;;;;;;21.84;37.51;100943.55;105559;1253;61252;-63
2024/04/09 07:44:03;;;;;;;4.70;2.00;;;;;;;21.98;37.00;100938.75;105581;1254;61449;-59
2024/04/09 07:46:30;;;;;;;4.80;1.50;;;;;;;22.10;36.91;100935.13;105212;1253;66595;-62
2024/04/09 07:49:00;;;;;;;7.00;1.70;;;;;;;22.21;36.40;100941.34;106018;1253;71473;-64
2024/04/09 07:51:28;;;;;;;5.00;1.40;;;;;;;22.31;36.00;100937.08;105695;1253;64600;-61
2024/04/09 07:53:56;;;;;;;3.50;1.60;;;;;;;22.42;35.80;100932.36;105751;1253;61401;-64
2024/04/09 07:56:24;;;;;;;4.40;1.40;;;;;;;22.50;35.53;100923.91;106621;1252;62294;-62
2024/04/09 07:58:52;;;;;;;6.10;1.50;;;;;;;22.58;34.91;100924.05;106579;1253;67715;-65
2024/04/09 08:01:20;;;;;;;6.50;1.60;;;;;;;22.67;35.34;100919.85;106043;1253;63435;-65
2024/04/09 08:03:48;;;;;;;3.90;1.50;;;;;;;22.76;35.55;100918.71;106080;1254;62559;-62
2024/04/09 08:06:16;;;;;;;4.20;1.30;;;;;;;22.87;35.43;100910.61;105959;1258;62293;-68
2024/04/09 08:08:44;;;;;;;5.30;1.70;;;;;;;22.97;34.59;100912.77;105968;1253;61356;-63
2024/04/09 08:11:15;;;;;;;4.80;1.50;;;;;;;23.10;34.02;100903.50;106044;1253;76866;-61
2024/04/09 08:13:43;;;;;;;3.70;1.40;;;;;;;23.18;34.32;100900.12;106049;1251;72589;-62
2024/04/09 08:16:11;;;;;;;6.80;1.50;;;;;;;23.26;34.01;100893.73;106106;1256;64201;-63
2024/04/09 08:18:38;;;;;;;4.80;1.40;;;;;;;23.33;34.01;100895.00;105878;1253;61219;-60
2024/04/09 08:21:09;;;;;;;8.60;1.80;;;;;;;23.40;33.65;100893.98;105693;1259;62294;-61
2024/04/09 08:23:37;;;;;;;4.80;1.50;;;;;;;23.47;33.31;100892.13;106068;1258;66008;-65
2024/04/09 08:26:05;;;;;;;5.00;1.80;;;;;;;23.53;32.82;100892.59;105981;1253;69804;-63
2024/04/09 08:28:32;;;;;;;3.60;1.40;;;;;;;23.60;32.82;100889.41;105089;1254;64204;-62
2024/04/09 08:31:05;;;;;;;5.60;1.70;;;;;;;23.70;32.76;100888.85;106404;1252;61314;-62
2024/04/09 08:33:34;;;;;;;4.30;1.50;;;;;;;23.78;32.45;100886.66;106036;1253;61286;-68
2024/04/09 08:36:02;;;;;;;6.20;1.60;;;;;;;23.83;32.30;100888.45;106143;1253;65992;-64
2024/04/09 08:38:30;;;;;;;5.20;1.80;;;;;;;23.89;32.37;100885.53;105459;1253;72397;-65
2024/04/09 08:40:58;;;;;;;5.40;1.80;;;;;;;23.95;32.16;100886.83;106060;1253;63106;-67
2024/04/09 08:43:27;;;;;;;3.50;1.40;;;;;;;24.01;31.92;100882.84;106288;1256;63170;-68
2024/04/09 08:45:56;;;;;;;5.30;1.60;;;;;;;24.07;32.12;100883.13;106580;1255;62357;-68
2024/04/09 08:48:24;;;;;;;4.40;1.70;;;;;;;24.13;32.05;100883.44;105745;1254;77637;-70
2024/04/09 08:50:52;;;;;;;4.90;2.10;;;;;;;24.20;31.13;100879.98;106652;1253;70766;-70
2024/04/09 08:53:23;;;;;;;5.80;1.90;;;;;;;24.26;31.17;100879.36;105778;1254;64859;-66
2024/04/09 08:55:52;;;;;;;5.50;1.60;;;;;;;24.31;31.12;100876.02;105838;1254;61170;-66
2024/04/09 08:58:20;;;;;;;3.90;1.30;;;;;;;24.34;31.08;100869.58;109159;1253;59294;-61
2024/04/09 09:00:47;;;;;;;4.90;1.50;;;;;;;24.35;30.77;100872.02;106927;1253;67694;-69
2024/04/09 09:03:15;;;;;;;4.30;1.80;;;;;;;24.38;31.17;100869.18;109169;1254;61839;-68
2024/04/09 09:05:43;;;;;;;5.70;2.10;;;;;;;24.43;31.48;100864.69;109203;1253;73995;-67
2024/04/09 09:08:10;;;;;;;6.20;2.10;;;;;;;24.51;31.24;100864.13;109185;1253;59102;-67
2024/04/09 09:10:38;;;;;;;6.50;1.50;;;;;;;24.58;30.63;100863.34;105618;1254;61539;-65
2024/04/09 09:13:06;;;;;;;4.80;1.70;;;;;;;24.64;30.85;100863.24;105254;1259;65874;-68
2024/04/09 09:15:34;;;;;;;5.00;1.80;;;;;;;24.72;31.20;100863.50;105721;1254;72725;-63
2024/04/09 09:18:04;;;;;;;4.80;1.90;;;;;;;24.78;30.17;100866.52;105757;1254;64711;-69
2024/04/09 09:20:32;;;;;;;4.90;1.80;;;;;;;24.79;30.64;100856.11;106443;1254;62317;-64
2024/04/09 09:23:02;;;;;;;3.80;1.60;;;;;;;24.82;30.47;100855.98;106107;1253;61388;-64
2024/04/09 09:25:31;;;;;;;4.30;1.80;;;;;;;24.88;30.40;100854.20;106578;1254;66104;-63
2024/04/09 09:28:09;;;;;;;4.80;1.90;;;;;;;24.91;30.45;100849.98;105678;1254;63898;-66
2024/04/09 09:30:40;;;;;;;4.70;1.90;;;;;;;24.96;30.67;100844.52;105446;1254;74910;-62
2024/04/09 09:33:20;;;;;;;4.40;1.90;;;;;;;25.04;30.48;100847.62;105242;1259;61251;-70
2024/04/09 09:35:51;;;;;;;6.50;1.80;;;;;;;25.10;30.32;100842.41;105428;1254;61567;-69
2024/04/09 09:38:20;;;;;;;5.50;2.30;;;;;;;25.16;29.68;100846.14;105703;1254;75725;-65
2024/04/09 09:40:49;;;;;;;5.60;2.70;;;;;;;25.19;29.45;100839.91;105698;1254;72864;-67
2024/04/09 09:43:21;;;;;;;6.70;2.50;;;;;;;25.21;29.30;100835.35;105767;1259;74896;-68
2024/04/09 09:45:48;;;;;;;4.80;2.20;;;;;;;25.24;29.16;100834.08;105837;1257;61336;-68
2024/04/09 09:48:19;;;;;;;4.80;2.40;;;;;;;25.28;28.85;100830.15;105936;1258;61296;-65
2024/04/09 09:50:47;;;;;;;4.90;2.50;;;;;;;25.32;29.31;100830.32;105377;1257;68484;-64
2024/04/09 09:53:14;;;;;;;5.20;2.50;;;;;;;25.40;29.38;100827.52;105398;1254;63701;-66
2024/04/09 09:55:43;;;;;;;4.50;2.20;;;;;;;25.48;29.42;100823.54;105505;1254;62957;-60
2024/04/09 09:58:13;;;;;;;6.20;2.00;;;;;;;25.54;28.62;100825.17;105268;1253;61296;-66
2024/04/09 10:00:40;;;;;;;4.70;2.10;;;;;;;25.62;28.31;100826.94;105517;1254;61380;-65
2024/04/09 10:03:09;;;;;;;5.70;2.30;;;;;;;25.67;27.84;100828.80;105294;1258;76879;-65
2024/04/09 10:05:38;;;;;;;6.20;2.10;;;;;;;25.67;27.75;100823.06;105505;1257;64171;-62
2024/04/09 10:08:22;;;;;;;6.30;2.50;;;;;;;25.66;27.34;100821.70;106319;1253;66269;-68
2024/04/09 10:10:50;;;;;;;5.20;2.00;;;;;;;25.66;27.60;100813.70;106137;1254;61437;-68
2024/04/09 10:13:25;;;;;;;5.50;2.00;;;;;;;25.67;27.70;100815.31;106091;1259;61156;-67
2024/04/09 10:15:57;;;;;;;6.60;1.90;;;;;;;25.70;27.55;100814.18;106044;1258;77196;-63
2024/04/09 10:18:31;;;;;;;4.00;1.90;;;;;;;25.72;27.80;100816.54;105948;1259;61992;-66
2024/04/09 10:20:59;;;;;;;6.30;2.20;;;;;;;25.78;28.41;100818.30;106041;1254;66381;-69
2024/04/09 10:23:26;;;;;;;10.90;2.40;;;;;;;25.87;27.33;100817.57;106046;1257;62926;-65
2024/04/09 10:25:57;;;;;;;5.00;2.30;;;;;;;25.92;27.18;100821.42;106096;1257;61050;-67
2024/04/09 10:28:30;;;;;;;5.70;2.20;;;;;;;25.95;26.85;100812.49;106135;1254;77048;-68
2024/04/09 10:31:12;;;;;;;5.10;1.90;;;;;;;25.99;26.91;100814.64;106080;1253;72594;-69
2024/04/09 10:33:40;;;;;;;4.10;2.10;;;;;;;26.04;26.63;100815.41;106259;1254;63909;-60
2024/04/09 10:36:11;;;;;;;6.70;2.10;;;;;;;26.05;26.76;100805.45;105342;1254;61316;-57
2024/04/09 10:38:43;;;;;;;4.90;2.10;;;;;;;26.07;26.97;100809.55;105432;1254;61283;-68
2024/04/09 10:41:11;;;;;;;5.60;2.50;;;;;;;26.14;26.65;100804.29;106155;1253;66064;-66
2024/04/09 10:43:41;;;;;;;5.40;2.40;;;;;;;26.21;26.41;100803.87;105856;1254;62183;-60
2024/04/09 10:46:08;;;;;;;4.80;2.20;;;;;;;26.29;26.88;100805.82;105362;1259;64853;-67
2024/04/09 10:48:43;;;;;;;7.50;2.20;;;;;;;26.38;26.46;100794.27;106125;1254;63060;-65
2024/04/09 10:51:12;;;;;;;3.80;1.80;;;;;;;26.45;26.90;100798.66;105992;1254;61353;-67
2024/04/09 10:53:40;;;;;;;6.30;2.20;;;;;;;26.54;27.27;100786.85;106064;1258;68576;-64
2024/04/09 10:56:08;;;;;;;4.60;1.90;;;;;;;26.63;26.26;100796.10;105590;1253;70151;-69
2024/04/09 10:58:38;;;;;;;6.70;2.30;;;;;;;26.66;25.95;100796.30;105532;1254;64178;-72
2024/04/09 11:01:14;;;;;;;4.80;2.50;;;;;;;26.68;26.00;100792.92;105295;1259;62152;-74
2024/04/09 11:03:42;;;;;;;3.80;2.00;;;;;;;26.72;25.62;100793.35;105086;1253;61248;-67
2024/04/09 11:06:14;;;;;;;4.20;1.80;;;;;;;26.75;25.70;100784.76;105420;1258;68018;-72
2024/04/09 11:08:42;;;;;;;4.40;2.00;;;;;;;26.79;25.63;100782.91;106158;1254;72658;-73
2024/04/09 11:11:10;;;;;;;6.00;1.90;;;;;;;26.82;25.88;100783.13;105264;1254;62935;-73
2024/04/09 11:13:38;;;;;;;6.40;1.70;;;;;;;26.85;25.08;100781.04;105221;1254;62063;-70
2024/04/09 11:16:06;;;;;;;3.60;1.50;;;;;;;26.86;25.33;100775.74;105164;1254;61317;-72
2024/04/09 11:18:33;;;;;;;6.30;2.00;;;;;;;26.89;25.09;100768.86;106370;1254;64601;-69